Time;durP1;ratioP1;P1;durP2;ratioP2;P2;SDS_P1;SDS_P2;PMS_P1;PMS_P2;Temp;Humidity;BMP_temperature;BMP_pressure;BME280_temperature;BME280_humidity;BME280_pressure;Samples;Min_cycle;Max_cycle;Signal;HPM_P1;HPM_P2
2024/01/24 00:01:13;;;;;;;28.33;5.57;;;10.20;99.90;;;;;;5092937;28;20397;-75
2024/01/24 00:03:38;;;;;;;23.20;5.40;;;10.20;99.90;;;;;;5092636;28;20570;-75
2024/01/24 00:06:04;;;;;;;22.50;5.47;;;10.20;99.90;;;;;;5092631;28;20282;-75
2024/01/24 00:08:30;;;;;;;31.90;6.53;;;10.30;99.90;;;;;;5092949;28;20052;-76
2024/01/24 00:10:56;;;;;;;33.77;7.10;;;10.30;99.90;;;;;;5096444;28;20186;-75
2024/01/24 00:13:22;;;;;;;31.80;6.33;;;10.30;99.90;;;;;;5095080;28;20546;-76
2024/01/24 00:15:47;;;;;;;27.30;4.53;;;10.50;99.90;;;;;;5095506;28;20063;-74
2024/01/24 00:18:13;;;;;;;27.47;5.07;;;10.40;99.90;;;;;;5096826;28;20728;-75
2024/01/24 00:20:39;;;;;;;32.10;5.93;;;10.50;99.90;;;;;;5096422;28;20043;-75
2024/01/24 00:23:05;;;;;;;39.70;7.23;;;10.50;99.90;;;;;;5096220;28;20048;-75
2024/01/24 00:25:30;;;;;;;34.70;6.67;;;10.60;99.90;;;;;;5096388;28;20482;-75
2024/01/24 00:27:56;;;;;;;37.30;6.03;;;10.50;99.90;;;;;;5096034;28;20084;-75
2024/01/24 00:30:22;;;;;;;30.30;5.73;;;10.60;99.90;;;;;;5096254;28;20044;-75
2024/01/24 00:32:48;;;;;;;29.77;5.63;;;10.60;99.90;;;;;;5096068;28;20109;-74
2024/01/24 00:35:15;;;;;;;30.73;5.77;;;10.60;99.90;;;;;;5096474;28;20501;-75
2024/01/24 00:37:40;;;;;;;32.90;5.73;;;10.70;99.90;;;;;;5096283;28;20079;-75
2024/01/24 00:40:07;;;;;;;31.17;6.37;;;10.70;99.90;;;;;;5094645;28;20334;-75
2024/01/24 00:42:33;;;;;;;32.37;5.73;;;10.70;99.90;;;;;;5094904;28;20044;-75
2024/01/24 00:44:59;;;;;;;28.13;5.13;;;10.70;99.90;;;;;;5095772;28;20755;-75
2024/01/24 00:47:24;;;;;;;27.57;5.73;;;10.70;99.90;;;;;;5096001;28;20076;-75
2024/01/24 00:49:50;;;;;;;25.33;5.93;;;10.80;99.90;;;;;;5095765;28;20568;-74
2024/01/24 00:52:16;;;;;;;30.40;6.30;;;10.80;99.90;;;;;;5095831;28;20044;-75
2024/01/24 00:54:42;;;;;;;36.53;5.50;;;10.70;99.90;;;;;;5095829;28;20097;-75
2024/01/24 00:57:07;;;;;;;23.60;5.37;;;10.70;99.90;;;;;;5095484;28;20393;-75
2024/01/24 00:59:33;;;;;;;27.80;5.00;;;10.80;99.90;;;;;;5077950;28;20152;-75
2024/01/24 01:01:59;;;;;;;27.00;5.33;;;10.80;99.90;;;;;;5095494;28;20052;-75
2024/01/24 01:04:25;;;;;;;27.17;5.13;;;10.80;99.90;;;;;;5095663;28;20040;-75
2024/01/24 01:06:50;;;;;;;31.30;5.57;;;10.70;99.90;;;;;;5095600;28;20071;-75
2024/01/24 01:09:16;;;;;;;25.63;5.33;;;10.70;99.90;;;;;;5094862;28;20095;-75
2024/01/24 01:11:42;;;;;;;24.33;4.30;;;10.70;99.90;;;;;;5095697;28;20048;-75
2024/01/24 01:14:08;;;;;;;29.90;4.70;;;10.70;99.90;;;;;;5095252;28;20048;-75
2024/01/24 01:16:33;;;;;;;23.13;4.67;;;10.70;99.90;;;;;;5095469;28;20402;-75
2024/01/24 01:18:59;;;;;;;28.13;4.33;;;10.70;99.90;;;;;;5095178;28;20282;-74
2024/01/24 01:21:25;;;;;;;25.23;5.30;;;10.70;99.90;;;;;;5094544;28;20093;-75
2024/01/24 01:23:50;;;;;;;23.70;5.10;;;10.70;99.90;;;;;;5095596;28;20398;-75
2024/01/24 01:26:16;;;;;;;19.43;3.67;;;10.70;99.90;;;;;;5094995;28;20059;-75
2024/01/24 01:28:42;;;;;;;25.23;4.50;;;10.70;99.90;;;;;;5095204;28;20055;-75
2024/01/24 01:31:07;;;;;;;24.50;3.90;;;10.80;99.90;;;;;;5094849;28;20048;-75
2024/01/24 01:33:33;;;;;;;28.37;5.33;;;10.80;99.90;;;;;;5095008;28;20048;-75
2024/01/24 01:35:59;;;;;;;19.83;3.73;;;10.80;99.90;;;;;;5094521;28;20066;-75
2024/01/24 01:38:24;;;;;;;21.13;4.30;;;10.80;99.90;;;;;;5094921;28;20044;-75
2024/01/24 01:40:50;;;;;;;22.43;4.37;;;10.80;99.90;;;;;;5094964;28;20048;-75
2024/01/24 01:43:16;;;;;;;18.80;3.57;;;10.90;99.90;;;;;;5094422;28;20383;-75
2024/01/24 01:45:42;;;;;;;20.17;3.73;;;10.90;99.90;;;;;;5094796;28;20135;-75
2024/01/24 01:48:10;;;;;;;20.03;3.50;;;10.90;99.90;;;;;;5094528;28;20392;-75
2024/01/24 01:50:36;;;;;;;21.33;3.30;;;11.00;99.90;;;;;;5094731;28;20275;-75
2024/01/24 01:53:03;;;;;;;18.90;3.77;;;11.00;99.90;;;;;;5094478;28;20274;-75
2024/01/24 01:55:31;;;;;;;17.30;4.50;;;11.00;99.90;;;;;;5094997;28;20360;-75
2024/01/24 01:57:58;;;;;;;19.80;3.40;;;11.00;99.90;;;;;;5094378;28;20297;-74
2024/01/24 02:00:25;;;;;;;17.40;3.50;;;11.00;99.90;;;;;;5094582;28;20365;-76
2024/01/24 02:02:51;;;;;;;25.03;4.83;;;11.00;99.90;;;;;;5093302;28;20321;-76
2024/01/24 02:05:17;;;;;;;17.97;4.00;;;11.00;99.90;;;;;;5094273;28;20318;-75
2024/01/24 02:07:44;;;;;;;21.77;3.70;;;10.90;99.90;;;;;;5094087;28;20420;-75
2024/01/24 02:10:14;;;;;;;15.70;4.30;;;11.00;99.90;;;;;;5094112;28;20290;-75
2024/01/24 02:12:40;;;;;;;21.20;4.27;;;11.00;99.90;;;;;;5093985;28;20817;-75
2024/01/24 02:15:08;;;;;;;16.43;3.80;;;11.00;99.90;;;;;;5094163;28;20360;-75
2024/01/24 02:17:35;;;;;;;14.20;3.93;;;11.00;99.90;;;;;;5093970;28;20775;-76
2024/01/24 02:20:01;;;;;;;17.80;4.77;;;10.90;99.90;;;;;;5093986;28;20282;-75
2024/01/24 02:22:26;;;;;;;20.37;3.90;;;10.90;99.90;;;;;;5093822;28;20779;-75
2024/01/24 02:24:52;;;;;;;21.83;3.40;;;10.90;99.90;;;;;;5094104;28;20286;-76
2024/01/24 02:27:18;;;;;;;21.03;4.13;;;10.90;99.90;;;;;;5093830;28;20387;-76
2024/01/24 02:29:44;;;;;;;19.33;3.47;;;10.90;99.90;;;;;;5093983;28;20048;-76
2024/01/24 02:32:10;;;;;;;18.23;3.83;;;10.90;99.90;;;;;;5092966;28;20489;-75
2024/01/24 02:34:35;;;;;;;23.80;4.20;;;10.80;99.90;;;;;;5094191;28;20086;-76
2024/01/24 02:37:01;;;;;;;19.53;3.47;;;10.90;99.90;;;;;;5093752;28;20044;-75
2024/01/24 02:39:27;;;;;;;23.10;5.13;;;10.80;99.90;;;;;;5093829;28;20595;-76
2024/01/24 02:41:53;;;;;;;23.10;4.30;;;10.80;99.90;;;;;;5093934;28;20126;-76
2024/01/24 02:44:18;;;;;;;21.40;4.87;;;10.80;99.90;;;;;;5093601;28;20446;-75
2024/01/24 02:46:44;;;;;;;24.77;4.00;;;10.80;99.90;;;;;;5093611;28;20036;-76
2024/01/24 02:49:10;;;;;;;22.77;4.27;;;10.70;99.90;;;;;;5093535;28;20097;-76
2024/01/24 02:51:36;;;;;;;24.80;3.90;;;10.60;99.90;;;;;;5093699;28;20054;-76
2024/01/24 02:54:02;;;;;;;26.60;4.70;;;10.60;99.90;;;;;;5093544;28;20290;-74
2024/01/24 02:56:28;;;;;;;20.37;4.13;;;10.60;99.90;;;;;;5093916;28;20740;-75
2024/01/24 02:58:54;;;;;;;25.90;4.77;;;10.60;99.90;;;;;;5093520;28;20135;-76
2024/01/24 03:01:20;;;;;;;22.23;4.23;;;10.50;99.90;;;;;;5093375;28;20051;-76
2024/01/24 03:03:45;;;;;;;27.07;5.43;;;10.50;99.90;;;;;;5092495;28;20150;-76
2024/01/24 03:06:11;;;;;;;33.33;6.40;;;10.50;99.90;;;;;;5093289;28;20055;-75
2024/01/24 03:08:50;;;;;;;29.20;5.90;;;10.40;99.90;;;;;;5093196;28;20056;-76
2024/01/24 03:11:17;;;;;;;35.73;5.93;;;10.40;99.90;;;;;;5092952;28;20052;-75
2024/01/24 03:13:44;;;;;;;28.10;5.83;;;10.40;99.90;;;;;;5093375;28;20278;-76
2024/01/24 03:16:09;;;;;;;20.60;5.07;;;10.30;99.90;;;;;;5093233;28;20772;-75
2024/01/24 03:18:39;;;;;;;31.60;6.20;;;10.30;99.90;;;;;;5092119;28;20293;-76
2024/01/24 03:21:14;;;;;;;32.07;6.00;;;10.30;99.90;;;;;;5093273;28;20090;-76
2024/01/24 03:23:40;;;;;;;21.38;4.45;;;10.20;99.90;;;;;;5093667;28;20696;-76
2024/01/24 03:26:06;;;;;;;28.53;4.93;;;10.20;99.90;;;;;;5093236;28;20048;-74
2024/01/24 03:28:32;;;;;;;34.80;6.67;;;10.20;99.90;;;;;;5093151;28;20290;-76
2024/01/24 03:30:59;;;;;;;24.50;5.53;;;10.20;99.90;;;;;;5093436;28;20289;-76
2024/01/24 03:33:24;;;;;;;32.03;6.43;;;10.20;99.90;;;;;;5092966;28;20296;-76
2024/01/24 03:35:50;;;;;;;25.77;5.53;;;10.20;99.90;;;;;;5093213;28;20281;-76
2024/01/24 03:38:16;;;;;;;29.17;4.53;;;10.30;99.90;;;;;;5093086;28;20044;-75
2024/01/24 03:40:42;;;;;;;24.90;5.23;;;10.30;99.90;;;;;;5093098;28;20516;-76
2024/01/24 03:43:10;;;;;;;28.20;4.90;;;10.30;99.90;;;;;;5093055;28;20097;-75
2024/01/24 03:45:37;;;;;;;29.97;5.00;;;10.30;99.90;;;;;;5096892;28;20356;-76
2024/01/24 03:48:04;;;;;;;25.93;5.40;;;10.30;99.90;;;;;;5095941;28;20290;-76
2024/01/24 03:50:29;;;;;;;28.67;5.00;;;10.30;99.90;;;;;;5096901;28;20286;-75
2024/01/24 03:52:55;;;;;;;29.27;5.47;;;10.40;99.90;;;;;;5097019;28;20273;-76
2024/01/24 03:55:21;;;;;;;32.67;6.43;;;10.30;99.90;;;;;;5095566;28;20051;-75
2024/01/24 03:57:46;;;;;;;30.60;5.20;;;10.30;99.90;;;;;;5097177;28;20040;-76
2024/01/24 04:00:13;;;;;;;31.97;5.30;;;10.30;99.90;;;;;;5095711;28;20064;-75
2024/01/24 04:02:40;;;;;;;29.97;5.37;;;10.30;99.90;;;;;;5097151;28;20051;-76
2024/01/24 04:05:06;;;;;;;28.30;5.30;;;10.30;99.90;;;;;;5095842;28;20791;-76
2024/01/24 04:07:32;;;;;;;27.83;5.70;;;10.20;99.90;;;;;;5096461;28;20305;-76
2024/01/24 04:09:59;;;;;;;39.03;6.80;;;10.20;99.90;;;;;;5078511;28;20722;-76
2024/01/24 04:12:25;;;;;;;30.77;5.13;;;10.30;99.90;;;;;;5096467;28;20055;-76
2024/01/24 04:14:51;;;;;;;39.77;7.33;;;10.20;99.90;;;;;;5095079;28;20621;-77
2024/01/24 04:17:16;;;;;;;30.83;6.87;;;10.20;99.90;;;;;;5096349;28;20048;-76
2024/01/24 04:19:42;;;;;;;32.20;7.10;;;10.20;99.90;;;;;;5096734;28;20100;-76
2024/01/24 04:22:08;;;;;;;26.77;6.63;;;10.20;99.90;;;;;;5096156;28;20051;-76
2024/01/24 04:24:34;;;;;;;32.97;6.93;;;10.20;99.90;;;;;;5096280;28;20058;-75
2024/01/24 04:27:00;;;;;;;32.47;6.30;;;10.20;99.90;;;;;;5096348;28;20301;-76
2024/01/24 04:29:26;;;;;;;41.70;7.27;;;10.20;99.90;;;;;;5095206;28;20479;-75
2024/01/24 04:31:52;;;;;;;35.07;6.90;;;10.20;99.90;;;;;;5096561;28;20477;-75
2024/01/24 04:34:18;;;;;;;34.37;6.50;;;10.10;99.90;;;;;;5096149;28;20289;-75
2024/01/24 04:36:44;;;;;;;27.03;6.87;;;10.10;99.90;;;;;;5095167;28;20105;-75
2024/01/24 04:39:10;;;;;;;39.27;6.83;;;10.00;99.90;;;;;;5096107;28;20051;-76
2024/01/24 04:41:36;;;;;;;33.90;5.93;;;10.00;99.90;;;;;;5095846;28;20322;-75
2024/01/24 04:44:03;;;;;;;35.17;7.17;;;10.00;99.90;;;;;;5096041;28;20282;-75
2024/01/24 04:46:29;;;;;;;37.40;7.67;;;10.00;99.90;;;;;;5094783;28;20685;-75
2024/01/24 04:48:54;;;;;;;43.80;8.00;;;10.00;99.90;;;;;;5095883;28;20282;-75
2024/01/24 04:51:21;;;;;;;44.00;8.10;;;9.90;99.90;;;;;;5095728;28;20044;-75
2024/01/24 04:53:47;;;;;;;32.30;7.73;;;9.90;99.90;;;;;;5095966;28;20060;-75
2024/01/24 04:56:14;;;;;;;38.67;7.60;;;9.90;99.90;;;;;;5095441;28;20286;-75
2024/01/24 04:58:42;;;;;;;39.47;8.20;;;9.80;99.90;;;;;;5095596;28;20281;-75
2024/01/24 05:01:08;;;;;;;42.13;8.10;;;9.80;99.90;;;;;;5095711;28;20282;-75
2024/01/24 05:03:34;;;;;;;40.73;8.63;;;9.80;99.90;;;;;;5095466;28;20278;-75
2024/01/24 05:06:00;;;;;;;47.73;8.37;;;9.90;99.90;;;;;;5095577;28;20048;-76
2024/01/24 05:08:25;;;;;;;36.53;7.93;;;9.80;99.90;;;;;;5093915;28;20508;-75
2024/01/24 05:10:51;;;;;;;51.07;9.93;;;9.90;99.90;;;;;;5095538;28;20285;-76
2024/01/24 05:13:18;;;;;;;37.77;9.00;;;9.90;99.90;;;;;;5095383;28;20047;-74
2024/01/24 05:15:43;;;;;;;38.20;8.07;;;9.90;99.90;;;;;;5095439;28;20375;-76
2024/01/24 05:18:09;;;;;;;40.93;7.73;;;9.90;99.90;;;;;;5095098;28;20320;-76
2024/01/24 05:20:37;;;;;;;39.50;8.20;;;9.90;99.90;;;;;;5095145;28;20036;-76
2024/01/24 05:23:03;;;;;;;39.63;9.63;;;9.90;99.90;;;;;;5095328;28;20052;-76
2024/01/24 05:25:32;;;;;;;45.10;10.70;;;9.90;99.90;;;;;;5095047;28;20631;-75
2024/01/24 05:27:58;;;;;;;40.73;9.30;;;9.90;99.90;;;;;;5095047;28;20301;-76
2024/01/24 05:30:25;;;;;;;44.67;9.33;;;9.90;99.90;;;;;;5094940;28;20348;-76
2024/01/24 05:32:55;;;;;;;50.37;10.60;;;9.90;99.90;;;;;;5095051;28;20286;-76
2024/01/24 05:35:21;;;;;;;36.23;8.47;;;9.80;99.90;;;;;;5094820;28;20285;-75
2024/01/24 05:37:47;;;;;;;46.57;9.60;;;9.80;99.90;;;;;;5094927;28;20278;-76
2024/01/24 05:40:12;;;;;;;46.73;9.57;;;9.70;99.90;;;;;;5093936;28;20060;-76
2024/01/24 05:42:38;;;;;;;47.40;9.60;;;9.70;99.90;;;;;;5094717;28;20383;-76
2024/01/24 05:45:05;;;;;;;41.40;9.03;;;9.60;99.90;;;;;;5094506;28;20044;-76
2024/01/24 05:47:31;;;;;;;46.50;10.47;;;9.60;99.90;;;;;;5094567;28;20121;-76
2024/01/24 05:49:58;;;;;;;49.37;9.63;;;9.60;99.90;;;;;;5093814;28;20297;-76
2024/01/24 05:52:24;;;;;;;45.77;8.77;;;9.60;99.90;;;;;;5094491;28;20332;-76
2024/01/24 05:54:50;;;;;;;43.80;9.33;;;9.60;99.90;;;;;;5093645;28;20286;-76
2024/01/24 05:57:16;;;;;;;48.10;10.53;;;9.60;99.90;;;;;;5094768;28;20040;-76
2024/01/24 05:59:41;;;;;;;50.60;10.47;;;9.60;99.90;;;;;;5094367;28;20052;-76
2024/01/24 06:02:07;;;;;;;48.07;10.40;;;9.60;99.90;;;;;;5094480;28;20056;-76
2024/01/24 06:04:33;;;;;;;42.67;8.93;;;9.60;99.90;;;;;;5094345;28;20052;-76
2024/01/24 06:07:01;;;;;;;55.00;11.60;;;9.60;99.90;;;;;;5093532;28;20492;-76
2024/01/24 06:09:30;;;;;;;48.40;9.80;;;9.50;99.90;;;;;;5093941;28;20064;-76
2024/01/24 06:11:55;;;;;;;48.73;9.97;;;9.50;99.90;;;;;;5094364;28;20289;-76
2024/01/24 06:14:21;;;;;;;48.07;9.90;;;9.50;99.90;;;;;;5094295;28;20286;-77
2024/01/24 06:16:47;;;;;;;50.47;10.20;;;9.50;99.90;;;;;;5094029;28;20055;-76
2024/01/24 06:19:13;;;;;;;47.47;9.90;;;9.50;99.90;;;;;;5094202;28;20051;-76
2024/01/24 06:21:38;;;;;;;43.97;10.23;;;9.50;99.90;;;;;;5094042;28;20502;-76
2024/01/24 06:24:07;;;;;;;48.40;10.20;;;9.50;99.90;;;;;;5094228;28;20047;-76
2024/01/24 06:26:33;;;;;;;42.40;9.53;;;9.50;99.90;;;;;;5093891;28;20043;-76
2024/01/24 06:28:59;;;;;;;45.30;8.73;;;9.40;99.90;;;;;;5094048;28;20655;-77
2024/01/24 06:31:24;;;;;;;49.60;9.97;;;9.40;99.90;;;;;;5094145;28;20040;-76
2024/01/24 06:33:50;;;;;;;43.77;8.40;;;9.30;99.90;;;;;;5093908;28;20093;-77
2024/01/24 06:36:16;;;;;;;49.83;10.40;;;9.40;99.90;;;;;;5094106;28;20050;-77
2024/01/24 06:38:42;;;;;;;43.23;8.93;;;9.30;99.90;;;;;;5093651;28;20066;-77
2024/01/24 06:41:07;;;;;;;46.93;9.30;;;9.30;99.90;;;;;;5093720;28;20083;-77
2024/01/24 06:43:35;;;;;;;45.93;9.37;;;9.30;99.90;;;;;;5093638;28;20075;-76
2024/01/24 06:46:02;;;;;;;46.17;9.53;;;9.30;99.90;;;;;;5093972;28;20048;-77
2024/01/24 06:48:28;;;;;;;38.27;9.30;;;9.30;99.90;;;;;;5093434;28;20290;-76
2024/01/24 06:50:54;;;;;;;45.10;9.90;;;9.20;99.90;;;;;;5093529;28;20347;-77
2024/01/24 06:53:20;;;;;;;42.57;9.10;;;9.20;99.90;;;;;;5093754;28;20570;-77
2024/01/24 06:55:46;;;;;;;40.97;9.63;;;9.20;99.90;;;;;;5092494;28;20044;-77
2024/01/24 06:58:12;;;;;;;43.97;8.60;;;9.20;99.90;;;;;;5092582;28;20286;-76
2024/01/24 07:00:38;;;;;;;42.57;8.53;;;9.20;99.90;;;;;;5093424;28;20080;-76
2024/01/24 07:03:04;;;;;;;43.23;8.87;;;9.20;99.90;;;;;;5093363;28;20055;-77
2024/01/24 07:05:30;;;;;;;41.83;8.63;;;9.20;99.90;;;;;;5093225;28;20048;-76
2024/01/24 07:07:57;;;;;;;48.63;9.37;;;9.20;99.90;;;;;;5092373;28;20302;-76
2024/01/24 07:10:23;;;;;;;38.87;8.37;;;9.20;99.90;;;;;;5093642;28;20407;-77
2024/01/24 07:12:49;;;;;;;45.83;9.13;;;9.20;99.90;;;;;;5093162;28;20289;-77
2024/01/24 07:15:15;;;;;;;45.00;9.93;;;9.10;99.90;;;;;;5092419;28;20286;-77
2024/01/24 07:17:41;;;;;;;43.03;8.57;;;9.10;99.90;;;;;;5093038;28;20087;-76
2024/01/24 07:20:08;;;;;;;52.10;10.03;;;9.00;99.90;;;;;;5093042;28;20318;-77
2024/01/24 07:22:33;;;;;;;41.33;9.10;;;9.00;99.90;;;;;;5093162;28;20048;-77
2024/01/24 07:24:59;;;;;;;39.90;8.53;;;9.00;99.90;;;;;;5093273;28;20813;-77
2024/01/24 07:27:25;;;;;;;46.57;10.37;;;9.00;99.90;;;;;;5092066;28;20039;-76
2024/01/24 07:29:50;;;;;;;40.80;10.90;;;9.00;99.90;;;;;;5093034;28;20047;-77
2024/01/24 07:32:16;;;;;;;45.80;9.33;;;9.00;99.90;;;;;;5093180;28;20083;-76
2024/01/24 07:34:43;;;;;;;58.10;10.47;;;8.90;99.90;;;;;;5092758;28;20047;-76
2024/01/24 07:37:09;;;;;;;43.17;8.93;;;9.00;99.90;;;;;;5093130;28;20048;-76
2024/01/24 07:39:35;;;;;;;44.97;9.23;;;9.00;99.90;;;;;;5093059;28;20286;-76
2024/01/24 07:42:00;;;;;;;41.47;8.70;;;9.00;99.90;;;;;;5091745;28;20371;-76
2024/01/24 07:44:26;;;;;;;48.03;10.33;;;9.10;99.90;;;;;;5093097;28;20300;-77
2024/01/24 07:46:53;;;;;;;43.57;8.43;;;9.10;99.90;;;;;;5092822;28;20090;-76
2024/01/24 07:49:19;;;;;;;46.23;9.17;;;9.10;99.90;;;;;;5093057;28;20048;-77
2024/01/24 07:51:46;;;;;;;44.53;10.70;;;9.10;99.90;;;;;;5092802;28;20323;-76
2024/01/24 07:54:12;;;;;;;44.33;10.70;;;9.10;99.90;;;;;;5093212;28;20052;-77
2024/01/24 07:56:38;;;;;;;46.90;10.27;;;9.10;99.90;;;;;;5092672;28;20332;-76
2024/01/24 07:59:05;;;;;;;49.07;10.33;;;9.10;99.90;;;;;;5093209;28;20274;-77
2024/01/24 08:01:31;;;;;;;42.77;8.03;;;9.00;99.90;;;;;;5092978;28;20285;-77
2024/01/24 08:03:58;;;;;;;47.87;9.67;;;9.00;99.90;;;;;;5092695;28;20278;-77
2024/01/24 08:06:24;;;;;;;47.53;9.90;;;9.00;99.90;;;;;;5092996;28;20582;-77
2024/01/24 08:08:50;;;;;;;42.30;8.10;;;9.00;99.90;;;;;;5091156;28;20651;-77
2024/01/24 08:11:17;;;;;;;47.43;9.50;;;9.00;99.90;;;;;;5092794;28;20703;-77
2024/01/24 08:13:43;;;;;;;42.10;8.40;;;9.00;99.90;;;;;;5092699;28;20282;-77
2024/01/24 08:16:09;;;;;;;41.30;9.30;;;9.00;99.90;;;;;;5092992;28;20365;-77
2024/01/24 08:18:35;;;;;;;42.57;11.17;;;9.00;99.90;;;;;;5092735;28;20349;-77
2024/01/24 08:21:00;;;;;;;49.47;9.87;;;9.00;99.90;;;;;;5092755;28;20123;-76
2024/01/24 08:23:26;;;;;;;46.73;9.87;;;9.00;99.90;;;;;;5092655;28;20897;-77
2024/01/24 08:25:52;;;;;;;48.67;10.20;;;9.10;99.90;;;;;;5092466;28;20051;-76
2024/01/24 08:28:18;;;;;;;51.70;9.33;;;9.10;99.90;;;;;;5092700;28;20050;-77
2024/01/24 08:30:44;;;;;;;45.53;8.47;;;9.10;99.90;;;;;;5094882;28;20043;-76
2024/01/24 08:33:09;;;;;;;45.43;10.33;;;9.00;99.90;;;;;;5096632;28;20044;-77
2024/01/24 08:35:36;;;;;;;48.70;8.43;;;9.00;99.90;;;;;;5096271;28;20079;-76
2024/01/24 08:38:05;;;;;;;49.80;9.87;;;9.00;99.90;;;;;;5096330;28;20040;-76
2024/01/24 08:40:30;;;;;;;38.37;7.97;;;9.00;99.90;;;;;;5096150;28;20289;-77
2024/01/24 08:42:56;;;;;;;39.97;9.43;;;9.00;99.90;;;;;;5095942;28;20752;-77
2024/01/24 08:45:22;;;;;;;46.27;9.70;;;9.00;99.90;;;;;;5096125;28;20561;-77
2024/01/24 08:47:48;;;;;;;49.60;10.67;;;9.00;99.90;;;;;;5095762;28;20043;-77
2024/01/24 08:50:14;;;;;;;39.20;9.03;;;9.00;99.90;;;;;;5096216;28;20048;-77
2024/01/24 08:52:40;;;;;;;35.60;7.80;;;9.10;99.90;;;;;;5095812;28;20281;-76
2024/01/24 08:55:07;;;;;;;43.33;8.40;;;9.00;99.90;;;;;;5095571;28;20044;-77
2024/01/24 08:57:33;;;;;;;46.37;9.83;;;9.00;99.90;;;;;;5095785;28;20036;-77
2024/01/24 08:59:59;;;;;;;43.60;9.23;;;9.00;99.90;;;;;;5095575;28;20301;-77
2024/01/24 09:02:26;;;;;;;42.10;9.03;;;9.10;99.90;;;;;;5096002;28;20743;-77
2024/01/24 09:04:52;;;;;;;41.47;9.17;;;9.00;99.90;;;;;;5095509;28;20127;-77
2024/01/24 09:07:21;;;;;;;46.43;9.50;;;9.10;99.90;;;;;;5095796;28;20302;-78
2024/01/24 09:09:51;;;;;;;38.00;8.73;;;9.10;99.90;;;;;;5095116;28;20721;-76
2024/01/24 09:12:17;;;;;;;39.37;8.40;;;9.10;99.90;;;;;;5094594;28;20322;-77
2024/01/24 09:14:44;;;;;;;49.13;9.40;;;9.10;99.90;;;;;;5095198;28;20278;-76
2024/01/24 09:17:11;;;;;;;41.07;9.07;;;9.20;99.90;;;;;;5095576;28;20288;-76
2024/01/24 09:19:37;;;;;;;46.77;10.77;;;9.20;99.90;;;;;;5095400;28;20357;-76
2024/01/24 09:22:03;;;;;;;39.87;8.00;;;9.20;99.90;;;;;;5094948;28;20695;-77
2024/01/24 09:24:28;;;;;;;49.00;9.53;;;9.20;99.90;;;;;;5095272;28;20126;-77
2024/01/24 09:26:56;;;;;;;46.63;9.80;;;9.30;99.90;;;;;;5094954;28;20044;-76
2024/01/24 09:29:21;;;;;;;41.47;8.47;;;9.30;99.90;;;;;;5095201;28;20056;-77
2024/01/24 09:31:48;;;;;;;48.57;8.83;;;9.30;99.90;;;;;;5094998;28;20331;-77
2024/01/24 09:34:17;;;;;;;39.30;9.20;;;9.30;99.90;;;;;;5095047;28;20563;-78
2024/01/24 09:36:43;;;;;;;44.80;9.87;;;9.30;99.90;;;;;;5095034;28;20608;-77
2024/01/24 09:39:09;;;;;;;38.23;9.03;;;9.30;99.90;;;;;;5094934;28;20335;-76
2024/01/24 09:41:42;;;;;;;37.70;9.47;;;9.40;99.90;;;;;;5093720;28;20097;-76
2024/01/24 09:44:09;;;;;;;46.50;10.70;;;9.40;99.90;;;;;;5094608;28;20290;-77
2024/01/24 09:46:36;;;;;;;40.53;8.33;;;9.40;99.90;;;;;;5093780;28;20289;-77
2024/01/24 09:49:06;;;;;;;46.23;8.80;;;9.40;99.90;;;;;;5094572;28;20347;-77
2024/01/24 09:51:33;;;;;;;47.10;8.67;;;9.50;99.90;;;;;;5094861;28;20383;-77
2024/01/24 09:54:05;;;;;;;52.33;10.00;;;9.50;99.90;;;;;;5094492;28;20285;-78
2024/01/24 09:56:37;;;;;;;50.43;9.73;;;9.40;99.90;;;;;;5094603;28;20298;-78
2024/01/24 09:59:04;;;;;;;34.00;8.13;;;9.50;99.90;;;;;;5094525;28;20274;-78
2024/01/24 10:01:33;;;;;;;41.63;8.37;;;9.50;99.90;;;;;;5094619;28;20685;-78
2024/01/24 10:04:00;;;;;;;37.53;8.23;;;9.50;99.90;;;;;;5094372;28;20282;-78
2024/01/24 10:06:29;;;;;;;37.33;8.60;;;9.50;99.90;;;;;;5094145;28;20801;-78
2024/01/24 10:08:56;;;;;;;45.63;9.80;;;9.50;99.90;;;;;;5094134;28;20298;-77
2024/01/24 10:11:23;;;;;;;38.33;8.27;;;9.50;99.90;;;;;;5094306;28;20285;-78
2024/01/24 10:13:49;;;;;;;40.90;9.50;;;9.60;99.90;;;;;;5094120;28;20312;-77
2024/01/24 10:16:15;;;;;;;44.40;8.37;;;9.60;99.90;;;;;;5094387;28;20361;-78
2024/01/24 10:18:42;;;;;;;35.47;8.13;;;9.50;99.90;;;;;;5094185;28;20051;-78
2024/01/24 10:21:08;;;;;;;46.90;8.30;;;9.60;99.90;;;;;;5093942;28;20070;-78
2024/01/24 10:23:34;;;;;;;43.37;11.10;;;9.60;99.90;;;;;;5094414;28;20778;-78
2024/01/24 10:26:00;;;;;;;40.67;8.60;;;9.60;99.90;;;;;;5093816;28;20052;-77
2024/01/24 10:28:26;;;;;;;48.53;8.00;;;9.60;99.90;;;;;;5093944;28;20047;-77
2024/01/24 10:30:51;;;;;;;34.33;7.97;;;9.60;99.90;;;;;;5093708;28;20278;-77
2024/01/24 10:33:17;;;;;;;38.47;9.23;;;9.60;99.90;;;;;;5093956;28;20553;-78
2024/01/24 10:35:43;;;;;;;43.83;11.70;;;9.60;99.90;;;;;;5092722;28;20094;-78
2024/01/24 10:38:13;;;;;;;38.73;8.93;;;9.70;99.90;;;;;;5093707;28;20058;-78
2024/01/24 10:40:40;;;;;;;44.67;9.80;;;9.70;99.90;;;;;;5092552;28;20039;-78
2024/01/24 10:43:11;;;;;;;38.57;9.03;;;9.70;99.90;;;;;;5093560;28;20289;-77
2024/01/24 10:45:41;;;;;;;39.17;7.93;;;9.70;99.90;;;;;;5094292;28;20629;-78
2024/01/24 10:48:09;;;;;;;34.70;7.77;;;9.70;99.90;;;;;;5093621;28;20759;-78
2024/01/24 10:50:36;;;;;;;43.63;9.07;;;9.70;99.90;;;;;;5096590;28;20293;-78
2024/01/24 10:53:02;;;;;;;37.57;8.20;;;9.70;99.90;;;;;;5095527;28;20282;-78
2024/01/24 10:55:29;;;;;;;37.43;7.47;;;9.70;99.90;;;;;;5094749;28;20282;-78
2024/01/24 10:57:56;;;;;;;37.80;8.93;;;9.70;99.90;;;;;;5094077;28;20333;-77
2024/01/24 11:00:24;;;;;;;40.47;8.60;;;9.70;99.90;;;;;;5094433;28;20348;-77
2024/01/24 11:02:50;;;;;;;38.40;8.23;;;9.70;99.90;;;;;;5094533;28;20282;-77
2024/01/24 11:05:20;;;;;;;34.67;8.27;;;9.70;99.90;;;;;;5096048;28;20944;-77
2024/01/24 11:07:56;;;;;;;36.67;8.43;;;9.70;99.90;;;;;;5095028;28;20082;-77
2024/01/24 11:10:40;;;;;;;;;;;9.70;99.90;;;;;;5094698;28;20271;-77
2024/01/24 11:13:06;;;;;;;43.80;9.93;;;9.80;99.90;;;;;;5093610;28;19927;-77
2024/01/24 11:15:35;;;;;;;36.80;7.37;;;9.80;99.90;;;;;;5093403;28;20282;-77
2024/01/24 11:18:30;;;;;;;35.63;7.97;;;9.80;99.90;;;;;;5093426;28;20325;-77
2024/01/24 11:20:58;;;;;;;40.63;8.25;;;9.80;99.90;;;;;;5093593;28;20278;-77
2024/01/24 11:23:45;;;;;;;41.57;8.30;;;9.90;99.90;;;;;;5093560;28;20131;-77
2024/01/24 11:26:17;;;;;;;39.90;9.00;;;9.90;99.90;;;;;;5095071;28;20606;-78
2024/01/24 11:28:44;;;;;;;39.50;8.77;;;9.90;99.90;;;;;;5094071;28;20294;-77
2024/01/24 11:31:11;;;;;;;39.47;8.03;;;9.90;99.90;;;;;;5092404;28;20286;-77
2024/01/24 11:34:12;;;;;;;42.50;8.47;;;9.90;99.90;;;;;;5092626;28;20286;-77
2024/01/24 11:36:50;;;;;;;33.40;7.87;;;9.90;99.90;;;;;;5093615;28;20652;-77
2024/01/24 11:39:29;;;;;;;44.07;9.63;;;10.00;99.90;;;;;;5092792;28;20764;-76
2024/01/24 11:42:24;;;;;;;38.13;8.50;;;9.90;99.90;;;;;;5093340;28;20347;-74
2024/01/24 11:44:52;;;;;;;40.43;7.50;;;10.00;99.90;;;;;;5093233;28;20343;-77
2024/01/24 11:47:19;;;;;;;34.50;8.20;;;10.00;99.90;;;;;;5092488;28;20775;-77
2024/01/24 11:49:51;;;;;;;36.40;8.03;;;9.90;99.90;;;;;;5093126;28;20274;-77
2024/01/24 11:52:22;;;;;;;36.97;7.80;;;10.00;99.90;;;;;;5092634;28;20652;-77
2024/01/24 11:54:52;;;;;;;45.37;9.13;;;9.90;99.90;;;;;;5093016;28;20286;-77
2024/01/24 11:57:17;;;;;;;44.83;10.07;;;9.90;99.90;;;;;;5092870;28;20274;-77
2024/01/24 11:59:43;;;;;;;38.23;8.53;;;9.90;99.90;;;;;;5092993;28;20327;-78
2024/01/24 12:02:09;;;;;;;41.37;8.93;;;9.90;99.90;;;;;;5092899;28;20512;-77
2024/01/24 12:04:35;;;;;;;34.40;7.97;;;9.90;99.90;;;;;;5092403;28;20048;-77
2024/01/24 12:07:01;;;;;;;40.50;9.37;;;9.90;99.90;;;;;;5096576;28;20036;-77
2024/01/24 12:09:27;;;;;;;34.47;8.67;;;9.90;99.90;;;;;;5095257;28;20143;-77
2024/01/24 12:11:52;;;;;;;36.57;7.40;;;9.90;99.90;;;;;;5096366;28;20369;-78
2024/01/24 12:14:19;;;;;;;36.50;7.77;;;9.90;99.90;;;;;;5096403;28;20051;-78
2024/01/24 12:16:47;;;;;;;38.80;8.50;;;9.80;99.90;;;;;;5096747;28;20044;-77
2024/01/24 12:19:14;;;;;;;42.60;7.67;;;9.80;99.90;;;;;;5096425;28;20331;-78
2024/01/24 12:21:40;;;;;;;35.70;8.20;;;9.80;99.90;;;;;;5096749;28;20288;-78
2024/01/24 12:24:07;;;;;;;40.07;8.57;;;9.80;99.90;;;;;;5096304;28;20274;-77
2024/01/24 12:26:34;;;;;;;39.90;8.23;;;9.80;99.90;;;;;;5095407;28;20369;-77
2024/01/24 12:29:00;;;;;;;39.03;8.83;;;9.80;99.90;;;;;;5096184;28;20310;-76
2024/01/24 12:31:29;;;;;;;38.60;8.70;;;9.80;99.90;;;;;;5096611;28;20336;-77
2024/01/24 12:33:58;;;;;;;40.37;7.77;;;9.70;99.90;;;;;;5096665;28;20040;-77
2024/01/24 12:36:24;;;;;;;38.13;6.87;;;9.80;99.90;;;;;;5096252;28;20281;-76
2024/01/24 12:38:54;;;;;;;36.67;8.30;;;9.70;99.90;;;;;;5096020;28;20767;-77
2024/01/24 12:41:21;;;;;;;36.30;7.70;;;9.70;99.90;;;;;;5096089;28;20277;-77